Sitio d'Abadia, Brazil
Current Conditions -  °F | °C
As of 10:20 AM on Thursday 29 Jan 2015 (Local Time) from SBBR Reporting Station
Thunderstorm Thunderstorm  
Wind Chill: 63°   Ceiling: 8000
Heat Index: 63°   Visibility: 4mi
Dew Point: 61°   Wind: 9mph
Humidity: 94%   Direction: 270°W
Pressure: 30.18"   Gusts: NA
Location:  14.81°S, 46.25°W
Report Text: SBBR 291220Z 27008KT 7000 -TSRA FEW005 SCT025 FEW030CB BKN08017/16 Q1022
Loading
Personal Weather Stations






























Interactive Weather Map New forecast layout! Learn more

10-Day Weather Forecast

Advertisements
Track Severe Weather on mobile